Bonnie View, Texas
Current Conditions -  °F | °C
As of 9:53 AM on Tuesday 21 Oct 2014 (Local Time) from KRKP Reporting Station
Clear Clear  
Wind Chill: 76°   Ceiling: Unl
Heat Index: 76°   Visibility: 10mi
Dew Point: 67°   Wind: 12mph
Humidity: 74%   Direction: 40°NE
Pressure: 30.02"   Gusts: NA
Location:  28.1946°N, 97.3573°W
Report Text: KRKP 211453Z AUTO 04010KT 10SM CLR 24/19 A3002 RMK AO2 SLP168 T02440194 51017
Loading
Personal Weather Stations






























Interactive Weather Map
Tropical Storm Tracking
New forecast layout! Learn more

10-Day Weather Forecast

Advertisements
Track Severe Weather on mobile